sensor_id;sensor_type;location;lat;lon;timestamp;P1;durP1;ratioP1;P2;durP2;ratioP2
68076;SDS011;54866;53.458;14.540;2023-03-19T00:01:35;17.30;;;12.00;;
68076;SDS011;54866;53.458;14.540;2023-03-19T00:04:05;17.60;;;13.40;;
68076;SDS011;54866;53.458;14.540;2023-03-19T00:06:35;15.20;;;12.80;;
68076;SDS011;54866;53.458;14.540;2023-03-19T00:09:04;17.70;;;13.50;;
68076;SDS011;54866;53.458;14.540;2023-03-19T00:11:34;16.70;;;12.20;;
68076;SDS011;54866;53.458;14.540;2023-03-19T00:14:04;17.60;;;12.50;;
68076;SDS011;54866;53.458;14.540;2023-03-19T00:16:34;17.30;;;12.60;;
68076;SDS011;54866;53.458;14.540;2023-03-19T00:19:03;16.40;;;13.10;;
68076;SDS011;54866;53.458;14.540;2023-03-19T00:21:34;18.00;;;12.20;;
68076;SDS011;54866;53.458;14.540;2023-03-19T00:24:06;18.30;;;14.20;;
68076;SDS011;54866;53.458;14.540;2023-03-19T00:26:36;16.80;;;12.40;;
68076;SDS011;54866;53.458;14.540;2023-03-19T00:29:06;16.20;;;12.60;;
68076;SDS011;54866;53.458;14.540;2023-03-19T00:31:36;19.90;;;12.30;;
68076;SDS011;54866;53.458;14.540;2023-03-19T00:34:07;15.60;;;11.70;;
68076;SDS011;54866;53.458;14.540;2023-03-19T00:36:38;17.70;;;12.40;;
68076;SDS011;54866;53.458;14.540;2023-03-19T00:39:08;18.40;;;13.40;;
68076;SDS011;54866;53.458;14.540;2023-03-19T00:41:38;19.00;;;14.40;;
68076;SDS011;54866;53.458;14.540;2023-03-19T00:44:07;23.30;;;17.00;;
68076;SDS011;54866;53.458;14.540;2023-03-19T00:46:37;20.40;;;16.10;;
68076;SDS011;54866;53.458;14.540;2023-03-19T00:49:07;19.70;;;16.00;;
68076;SDS011;54866;53.458;14.540;2023-03-19T00:51:36;20.00;;;14.60;;
68076;SDS011;54866;53.458;14.540;2023-03-19T00:54:10;21.40;;;17.30;;
68076;SDS011;54866;53.458;14.540;2023-03-19T00:56:39;26.90;;;17.50;;
68076;SDS011;54866;53.458;14.540;2023-03-19T00:59:09;20.30;;;15.00;;
68076;SDS011;54866;53.458;14.540;2023-03-19T01:01:39;18.40;;;15.30;;
68076;SDS011;54866;53.458;14.540;2023-03-19T01:04:08;17.90;;;15.00;;
68076;SDS011;54866;53.458;14.540;2023-03-19T01:06:38;20.10;;;16.40;;
68076;SDS011;54866;53.458;14.540;2023-03-19T01:09:08;19.70;;;15.40;;
68076;SDS011;54866;53.458;14.540;2023-03-19T01:11:38;18.20;;;14.50;;
68076;SDS011;54866;53.458;14.540;2023-03-19T01:14:07;17.40;;;14.40;;
68076;SDS011;54866;53.458;14.540;2023-03-19T01:16:38;20.40;;;14.40;;
68076;SDS011;54866;53.458;14.540;2023-03-19T01:19:07;20.60;;;12.50;;
68076;SDS011;54866;53.458;14.540;2023-03-19T01:21:37;14.50;;;11.20;;
68076;SDS011;54866;53.458;14.540;2023-03-19T01:24:11;20.40;;;12.50;;
68076;SDS011;54866;53.458;14.540;2023-03-19T01:26:41;16.30;;;11.80;;
68076;SDS011;54866;53.458;14.540;2023-03-19T01:29:12;16.90;;;11.90;;
68076;SDS011;54866;53.458;14.540;2023-03-19T01:31:41;15.40;;;12.00;;
68076;SDS011;54866;53.458;14.540;2023-03-19T01:34:11;13.30;;;10.40;;
68076;SDS011;54866;53.458;14.540;2023-03-19T01:36:40;16.10;;;11.80;;
68076;SDS011;54866;53.458;14.540;2023-03-19T01:39:10;16.70;;;12.70;;
68076;SDS011;54866;53.458;14.540;2023-03-19T01:41:40;15.50;;;12.30;;
68076;SDS011;54866;53.458;14.540;2023-03-19T01:44:23;15.90;;;11.20;;
68076;SDS011;54866;53.458;14.540;2023-03-19T01:46:54;16.30;;;11.70;;
68076;SDS011;54866;53.458;14.540;2023-03-19T01:49:28;16.90;;;11.50;;
68076;SDS011;54866;53.458;14.540;2023-03-19T01:52:00;14.20;;;11.40;;
68076;SDS011;54866;53.458;14.540;2023-03-19T01:54:31;15.70;;;11.40;;
68076;SDS011;54866;53.458;14.540;2023-03-19T01:57:03;17.50;;;11.20;;
68076;SDS011;54866;53.458;14.540;2023-03-19T01:59:37;15.50;;;11.00;;
68076;SDS011;54866;53.458;14.540;2023-03-19T02:02:12;15.70;;;10.40;;
68076;SDS011;54866;53.458;14.540;2023-03-19T02:04:47;13.00;;;10.00;;
68076;SDS011;54866;53.458;14.540;2023-03-19T02:07:20;14.90;;;10.50;;
68076;SDS011;54866;53.458;14.540;2023-03-19T02:09:50;15.50;;;11.30;;
68076;SDS011;54866;53.458;14.540;2023-03-19T02:12:20;15.60;;;10.60;;
68076;SDS011;54866;53.458;14.540;2023-03-19T02:14:50;16.70;;;11.90;;
68076;SDS011;54866;53.458;14.540;2023-03-19T02:17:20;13.60;;;10.70;;
68076;SDS011;54866;53.458;14.540;2023-03-19T02:19:51;14.60;;;10.40;;
68076;SDS011;54866;53.458;14.540;2023-03-19T02:22:25;14.20;;;9.30;;
68076;SDS011;54866;53.458;14.540;2023-03-19T02:24:57;12.70;;;9.80;;
68076;SDS011;54866;53.458;14.540;2023-03-19T02:27:34;16.80;;;10.70;;
68076;SDS011;54866;53.458;14.540;2023-03-19T02:32:49;12.60;;;9.90;;
68076;SDS011;54866;53.458;14.540;2023-03-19T02:35:19;11.60;;;9.30;;
68076;SDS011;54866;53.458;14.540;2023-03-19T02:37:49;13.30;;;10.50;;
68076;SDS011;54866;53.458;14.540;2023-03-19T02:40:19;11.90;;;8.70;;
68076;SDS011;54866;53.458;14.540;2023-03-19T02:42:52;12.80;;;9.70;;
68076;SDS011;54866;53.458;14.540;2023-03-19T02:45:22;13.50;;;9.70;;
68076;SDS011;54866;53.458;14.540;2023-03-19T02:47:54;15.60;;;10.60;;
68076;SDS011;54866;53.458;14.540;2023-03-19T02:50:24;13.60;;;10.00;;
68076;SDS011;54866;53.458;14.540;2023-03-19T02:52:54;12.30;;;9.40;;
68076;SDS011;54866;53.458;14.540;2023-03-19T02:55:23;14.30;;;10.50;;
68076;SDS011;54866;53.458;14.540;2023-03-19T02:57:53;15.40;;;9.90;;
68076;SDS011;54866;53.458;14.540;2023-03-19T03:00:22;15.10;;;10.50;;
68076;SDS011;54866;53.458;14.540;2023-03-19T03:02:52;14.30;;;10.70;;
68076;SDS011;54866;53.458;14.540;2023-03-19T03:05:23;13.50;;;9.90;;
68076;SDS011;54866;53.458;14.540;2023-03-19T03:07:53;14.80;;;10.00;;
68076;SDS011;54866;53.458;14.540;2023-03-19T03:10:23;13.50;;;9.90;;
68076;SDS011;54866;53.458;14.540;2023-03-19T03:12:53;12.10;;;10.10;;
68076;SDS011;54866;53.458;14.540;2023-03-19T03:15:22;15.50;;;10.60;;
68076;SDS011;54866;53.458;14.540;2023-03-19T03:17:52;13.70;;;10.70;;
68076;SDS011;54866;53.458;14.540;2023-03-19T03:20:22;13.90;;;10.50;;
68076;SDS011;54866;53.458;14.540;2023-03-19T03:22:52;16.60;;;11.80;;
68076;SDS011;54866;53.458;14.540;2023-03-19T03:25:21;15.60;;;12.00;;
68076;SDS011;54866;53.458;14.540;2023-03-19T03:27:51;16.80;;;13.10;;
68076;SDS011;54866;53.458;14.540;2023-03-19T03:30:21;12.70;;;10.90;;
68076;SDS011;54866;53.458;14.540;2023-03-19T03:32:50;17.10;;;10.70;;
68076;SDS011;54866;53.458;14.540;2023-03-19T03:35:20;16.60;;;12.40;;
68076;SDS011;54866;53.458;14.540;2023-03-19T03:37:50;14.80;;;11.20;;
68076;SDS011;54866;53.458;14.540;2023-03-19T03:40:20;15.80;;;12.70;;
68076;SDS011;54866;53.458;14.540;2023-03-19T03:42:49;14.50;;;11.20;;
68076;SDS011;54866;53.458;14.540;2023-03-19T03:45:19;15.60;;;11.70;;
68076;SDS011;54866;53.458;14.540;2023-03-19T03:47:48;17.40;;;11.70;;
68076;SDS011;54866;53.458;14.540;2023-03-19T03:50:18;15.20;;;11.00;;
68076;SDS011;54866;53.458;14.540;2023-03-19T03:52:47;17.30;;;11.20;;
68076;SDS011;54866;53.458;14.540;2023-03-19T03:55:17;18.00;;;11.60;;
68076;SDS011;54866;53.458;14.540;2023-03-19T03:57:47;13.80;;;11.40;;
68076;SDS011;54866;53.458;14.540;2023-03-19T04:00:16;20.50;;;12.90;;
68076;SDS011;54866;53.458;14.540;2023-03-19T04:02:47;14.80;;;11.50;;
68076;SDS011;54866;53.458;14.540;2023-03-19T04:05:17;17.10;;;13.80;;
68076;SDS011;54866;53.458;14.540;2023-03-19T04:07:46;15.30;;;12.70;;
68076;SDS011;54866;53.458;14.540;2023-03-19T04:10:16;14.90;;;11.70;;
68076;SDS011;54866;53.458;14.540;2023-03-19T04:12:46;17.00;;;12.40;;
68076;SDS011;54866;53.458;14.540;2023-03-19T04:15:15;16.00;;;12.70;;
68076;SDS011;54866;53.458;14.540;2023-03-19T04:17:45;25.60;;;14.10;;
68076;SDS011;54866;53.458;14.540;2023-03-19T04:20:16;19.10;;;13.90;;
68076;SDS011;54866;53.458;14.540;2023-03-19T04:22:45;17.50;;;12.60;;
68076;SDS011;54866;53.458;14.540;2023-03-19T04:25:15;18.00;;;12.00;;
68076;SDS011;54866;53.458;14.540;2023-03-19T04:27:45;14.60;;;12.40;;
68076;SDS011;54866;53.458;14.540;2023-03-19T04:30:15;15.10;;;11.40;;
68076;SDS011;54866;53.458;14.540;2023-03-19T04:32:45;15.80;;;11.30;;
68076;SDS011;54866;53.458;14.540;2023-03-19T04:35:15;14.60;;;11.10;;
68076;SDS011;54866;53.458;14.540;2023-03-19T04:37:44;15.80;;;11.90;;
68076;SDS011;54866;53.458;14.540;2023-03-19T04:40:15;17.40;;;10.80;;
68076;SDS011;54866;53.458;14.540;2023-03-19T04:42:45;14.70;;;11.40;;
68076;SDS011;54866;53.458;14.540;2023-03-19T04:45:14;16.90;;;11.60;;
68076;SDS011;54866;53.458;14.540;2023-03-19T04:47:44;15.20;;;12.40;;
68076;SDS011;54866;53.458;14.540;2023-03-19T04:50:13;16.80;;;12.40;;
68076;SDS011;54866;53.458;14.540;2023-03-19T04:52:43;18.20;;;12.50;;
68076;SDS011;54866;53.458;14.540;2023-03-19T04:55:13;17.80;;;12.80;;
68076;SDS011;54866;53.458;14.540;2023-03-19T04:57:43;15.80;;;12.40;;
68076;SDS011;54866;53.458;14.540;2023-03-19T05:00:13;14.70;;;11.20;;
68076;SDS011;54866;53.458;14.540;2023-03-19T05:02:44;14.70;;;11.50;;
68076;SDS011;54866;53.458;14.540;2023-03-19T05:05:14;12.40;;;10.20;;
68076;SDS011;54866;53.458;14.540;2023-03-19T05:07:44;16.40;;;12.30;;
68076;SDS011;54866;53.458;14.540;2023-03-19T05:10:13;14.80;;;11.30;;
68076;SDS011;54866;53.458;14.540;2023-03-19T05:12:43;13.40;;;10.60;;
68076;SDS011;54866;53.458;14.540;2023-03-19T05:15:13;13.30;;;10.90;;
68076;SDS011;54866;53.458;14.540;2023-03-19T05:17:42;14.50;;;11.20;;
68076;SDS011;54866;53.458;14.540;2023-03-19T05:20:12;15.90;;;11.20;;
68076;SDS011;54866;53.458;14.540;2023-03-19T05:22:42;14.20;;;12.10;;
68076;SDS011;54866;53.458;14.540;2023-03-19T05:25:12;20.50;;;14.50;;
68076;SDS011;54866;53.458;14.540;2023-03-19T05:27:41;19.10;;;14.30;;
68076;SDS011;54866;53.458;14.540;2023-03-19T05:30:11;20.80;;;14.40;;
68076;SDS011;54866;53.458;14.540;2023-03-19T05:32:43;17.90;;;14.60;;
68076;SDS011;54866;53.458;14.540;2023-03-19T05:35:13;19.40;;;13.80;;
68076;SDS011;54866;53.458;14.540;2023-03-19T05:37:42;19.30;;;14.40;;
68076;SDS011;54866;53.458;14.540;2023-03-19T05:40:12;17.90;;;13.20;;
68076;SDS011;54866;53.458;14.540;2023-03-19T05:42:42;17.20;;;13.90;;
68076;SDS011;54866;53.458;14.540;2023-03-19T05:45:11;19.20;;;16.30;;
68076;SDS011;54866;53.458;14.540;2023-03-19T05:47:41;17.90;;;16.00;;
68076;SDS011;54866;53.458;14.540;2023-03-19T05:50:13;19.50;;;15.20;;
68076;SDS011;54866;53.458;14.540;2023-03-19T05:52:43;21.50;;;14.30;;
68076;SDS011;54866;53.458;14.540;2023-03-19T05:55:12;18.50;;;15.70;;
68076;SDS011;54866;53.458;14.540;2023-03-19T05:57:42;20.70;;;15.10;;
68076;SDS011;54866;53.458;14.540;2023-03-19T06:00:13;19.50;;;15.40;;
68076;SDS011;54866;53.458;14.540;2023-03-19T06:02:44;19.60;;;15.30;;
68076;SDS011;54866;53.458;14.540;2023-03-19T06:05:14;18.80;;;15.10;;
68076;SDS011;54866;53.458;14.540;2023-03-19T06:07:43;20.80;;;14.70;;
68076;SDS011;54866;53.458;14.540;2023-03-19T06:10:13;19.40;;;14.50;;
68076;SDS011;54866;53.458;14.540;2023-03-19T06:12:43;21.20;;;16.50;;
68076;SDS011;54866;53.458;14.540;2023-03-19T06:15:13;24.50;;;16.40;;
68076;SDS011;54866;53.458;14.540;2023-03-19T06:17:43;21.00;;;15.30;;
68076;SDS011;54866;53.458;14.540;2023-03-19T06:20:13;18.50;;;16.50;;
68076;SDS011;54866;53.458;14.540;2023-03-19T06:22:43;21.10;;;16.90;;
68076;SDS011;54866;53.458;14.540;2023-03-19T06:25:13;20.20;;;15.00;;
68076;SDS011;54866;53.458;14.540;2023-03-19T06:27:42;20.80;;;13.90;;
68076;SDS011;54866;53.458;14.540;2023-03-19T06:30:12;19.20;;;15.60;;
68076;SDS011;54866;53.458;14.540;2023-03-19T06:32:42;18.20;;;15.90;;
68076;SDS011;54866;53.458;14.540;2023-03-19T06:35:12;18.30;;;16.20;;
68076;SDS011;54866;53.458;14.540;2023-03-19T06:37:42;16.70;;;14.90;;
68076;SDS011;54866;53.458;14.540;2023-03-19T06:40:12;19.20;;;14.60;;
68076;SDS011;54866;53.458;14.540;2023-03-19T06:42:44;15.80;;;14.10;;
68076;SDS011;54866;53.458;14.540;2023-03-19T06:45:14;18.60;;;16.50;;
68076;SDS011;54866;53.458;14.540;2023-03-19T06:47:45;16.00;;;14.50;;
68076;SDS011;54866;53.458;14.540;2023-03-19T06:50:15;14.70;;;13.10;;
68076;SDS011;54866;53.458;14.540;2023-03-19T06:52:45;15.70;;;13.90;;
68076;SDS011;54866;53.458;14.540;2023-03-19T06:55:15;16.30;;;14.20;;
68076;SDS011;54866;53.458;14.540;2023-03-19T06:57:48;15.50;;;13.80;;
68076;SDS011;54866;53.458;14.540;2023-03-19T07:00:18;15.50;;;13.90;;
68076;SDS011;54866;53.458;14.540;2023-03-19T07:02:49;13.80;;;12.50;;
68076;SDS011;54866;53.458;14.540;2023-03-19T07:05:18;14.60;;;13.30;;
68076;SDS011;54866;53.458;14.540;2023-03-19T07:07:48;14.20;;;12.80;;
68076;SDS011;54866;53.458;14.540;2023-03-19T07:10:18;14.30;;;12.90;;
68076;SDS011;54866;53.458;14.540;2023-03-19T07:12:49;13.90;;;12.70;;
68076;SDS011;54866;53.458;14.540;2023-03-19T07:15:18;13.80;;;12.50;;
68076;SDS011;54866;53.458;14.540;2023-03-19T07:17:48;13.80;;;12.50;;
68076;SDS011;54866;53.458;14.540;2023-03-19T07:20:18;14.10;;;12.60;;
68076;SDS011;54866;53.458;14.540;2023-03-19T07:22:48;13.90;;;12.70;;
68076;SDS011;54866;53.458;14.540;2023-03-19T07:25:18;13.80;;;12.50;;
68076;SDS011;54866;53.458;14.540;2023-03-19T07:27:49;14.00;;;12.50;;
68076;SDS011;54866;53.458;14.540;2023-03-19T07:30:18;14.00;;;12.60;;
68076;SDS011;54866;53.458;14.540;2023-03-19T07:32:49;15.20;;;13.40;;
68076;SDS011;54866;53.458;14.540;2023-03-19T07:35:18;13.80;;;12.30;;
68076;SDS011;54866;53.458;14.540;2023-03-19T07:37:48;14.10;;;12.70;;
68076;SDS011;54866;53.458;14.540;2023-03-19T07:40:17;13.70;;;11.90;;
68076;SDS011;54866;53.458;14.540;2023-03-19T07:42:48;13.00;;;11.70;;
68076;SDS011;54866;53.458;14.540;2023-03-19T07:45:18;15.40;;;13.10;;
68076;SDS011;54866;53.458;14.540;2023-03-19T07:47:48;13.60;;;12.00;;
68076;SDS011;54866;53.458;14.540;2023-03-19T07:50:18;14.20;;;12.60;;
68076;SDS011;54866;53.458;14.540;2023-03-19T07:52:48;16.20;;;13.10;;
68076;SDS011;54866;53.458;14.540;2023-03-19T07:55:18;14.20;;;12.50;;
68076;SDS011;54866;53.458;14.540;2023-03-19T07:57:48;13.10;;;10.80;;
68076;SDS011;54866;53.458;14.540;2023-03-19T08:00:18;15.30;;;13.00;;
68076;SDS011;54866;53.458;14.540;2023-03-19T08:02:48;17.50;;;13.00;;
68076;SDS011;54866;53.458;14.540;2023-03-19T08:05:17;15.70;;;13.60;;
68076;SDS011;54866;53.458;14.540;2023-03-19T08:07:48;15.20;;;12.20;;
68076;SDS011;54866;53.458;14.540;2023-03-19T08:10:18;16.60;;;11.80;;
68076;SDS011;54866;53.458;14.540;2023-03-19T08:12:47;14.90;;;12.10;;
68076;SDS011;54866;53.458;14.540;2023-03-19T08:15:17;16.50;;;13.20;;
68076;SDS011;54866;53.458;14.540;2023-03-19T08:17:47;14.20;;;12.40;;
68076;SDS011;54866;53.458;14.540;2023-03-19T08:20:23;13.50;;;12.10;;
68076;SDS011;54866;53.458;14.540;2023-03-19T08:22:53;15.10;;;12.30;;
68076;SDS011;54866;53.458;14.540;2023-03-19T08:25:23;15.60;;;11.60;;
68076;SDS011;54866;53.458;14.540;2023-03-19T08:27:57;15.00;;;12.30;;
68076;SDS011;54866;53.458;14.540;2023-03-19T08:30:27;12.70;;;10.80;;
68076;SDS011;54866;53.458;14.540;2023-03-19T08:32:57;14.50;;;11.20;;
68076;SDS011;54866;53.458;14.540;2023-03-19T08:35:27;13.00;;;10.80;;
68076;SDS011;54866;53.458;14.540;2023-03-19T08:37:57;11.90;;;10.70;;
68076;SDS011;54866;53.458;14.540;2023-03-19T08:40:26;10.60;;;9.50;;
68076;SDS011;54866;53.458;14.540;2023-03-19T08:42:56;11.60;;;10.40;;
68076;SDS011;54866;53.458;14.540;2023-03-19T08:45:26;11.60;;;8.90;;
68076;SDS011;54866;53.458;14.540;2023-03-19T08:47:56;11.50;;;9.30;;
68076;SDS011;54866;53.458;14.540;2023-03-19T08:50:26;9.80;;;8.50;;
68076;SDS011;54866;53.458;14.540;2023-03-19T08:52:55;10.60;;;8.20;;
68076;SDS011;54866;53.458;14.540;2023-03-19T08:55:25;8.70;;;7.70;;
68076;SDS011;54866;53.458;14.540;2023-03-19T08:57:55;9.10;;;7.00;;
68076;SDS011;54866;53.458;14.540;2023-03-19T09:00:25;8.80;;;6.70;;
68076;SDS011;54866;53.458;14.540;2023-03-19T09:02:55;7.90;;;6.60;;
68076;SDS011;54866;53.458;14.540;2023-03-19T09:05:25;11.70;;;8.50;;
68076;SDS011;54866;53.458;14.540;2023-03-19T09:07:54;10.10;;;8.10;;
68076;SDS011;54866;53.458;14.540;2023-03-19T09:10:24;9.10;;;6.90;;
68076;SDS011;54866;53.458;14.540;2023-03-19T09:12:53;9.30;;;7.00;;
68076;SDS011;54866;53.458;14.540;2023-03-19T09:15:23;9.50;;;6.40;;
68076;SDS011;54866;53.458;14.540;2023-03-19T09:17:53;10.10;;;7.80;;
68076;SDS011;54866;53.458;14.540;2023-03-19T09:20:23;9.20;;;6.80;;
68076;SDS011;54866;53.458;14.540;2023-03-19T09:22:52;12.90;;;9.40;;
68076;SDS011;54866;53.458;14.540;2023-03-19T09:25:22;7.90;;;5.90;;
68076;SDS011;54866;53.458;14.540;2023-03-19T09:27:52;8.90;;;7.80;;
68076;SDS011;54866;53.458;14.540;2023-03-19T09:30:21;9.70;;;6.80;;
68076;SDS011;54866;53.458;14.540;2023-03-19T09:32:51;8.40;;;7.50;;
68076;SDS011;54866;53.458;14.540;2023-03-19T09:35:21;12.30;;;9.00;;
68076;SDS011;54866;53.458;14.540;2023-03-19T09:37:56;12.30;;;9.30;;
68076;SDS011;54866;53.458;14.540;2023-03-19T09:40:28;16.50;;;11.90;;
68076;SDS011;54866;53.458;14.540;2023-03-19T09:43:04;20.10;;;16.20;;
68076;SDS011;54866;53.458;14.540;2023-03-19T09:45:51;14.90;;;11.50;;
68076;SDS011;54866;53.458;14.540;2023-03-19T09:48:23;17.30;;;14.20;;
68076;SDS011;54866;53.458;14.540;2023-03-19T09:51:01;13.60;;;11.30;;
68076;SDS011;54866;53.458;14.540;2023-03-19T09:53:37;16.40;;;13.50;;
68076;SDS011;54866;53.458;14.540;2023-03-19T09:56:13;17.30;;;14.30;;
68076;SDS011;54866;53.458;14.540;2023-03-19T09:58:44;16.00;;;12.30;;
68076;SDS011;54866;53.458;14.540;2023-03-19T10:01:19;14.10;;;12.30;;
68076;SDS011;54866;53.458;14.540;2023-03-19T10:04:08;13.80;;;12.40;;
68076;SDS011;54866;53.458;14.540;2023-03-19T10:07:01;11.80;;;9.20;;
68076;SDS011;54866;53.458;14.540;2023-03-19T10:09:45;9.80;;;8.70;;
68076;SDS011;54866;53.458;14.540;2023-03-19T10:12:24;9.00;;;8.10;;
68076;SDS011;54866;53.458;14.540;2023-03-19T10:15:03;12.30;;;10.90;;
68076;SDS011;54866;53.458;14.540;2023-03-19T10:17:43;11.70;;;10.50;;
68076;SDS011;54866;53.458;14.540;2023-03-19T10:20:24;12.30;;;9.10;;
68076;SDS011;54866;53.458;14.540;2023-03-19T10:23:18;11.20;;;9.10;;
68076;SDS011;54866;53.458;14.540;2023-03-19T10:26:04;12.20;;;10.90;;
68076;SDS011;54866;53.458;14.540;2023-03-19T10:28:36;13.70;;;12.30;;
68076;SDS011;54866;53.458;14.540;2023-03-19T10:31:17;12.80;;;11.10;;
68076;SDS011;54866;53.458;14.540;2023-03-19T10:34:00;12.10;;;10.90;;
68076;SDS011;54866;53.458;14.540;2023-03-19T10:36:40;15.90;;;13.60;;
68076;SDS011;54866;53.458;14.540;2023-03-19T10:39:09;15.80;;;12.40;;
68076;SDS011;54866;53.458;14.540;2023-03-19T10:41:44;16.20;;;12.50;;
68076;SDS011;54866;53.458;14.540;2023-03-19T10:44:26;15.30;;;12.00;;
68076;SDS011;54866;53.458;14.540;2023-03-19T10:46:58;16.30;;;11.90;;
68076;SDS011;54866;53.458;14.540;2023-03-19T10:49:36;11.50;;;10.30;;
68076;SDS011;54866;53.458;14.540;2023-03-19T10:52:08;12.60;;;10.60;;
68076;SDS011;54866;53.458;14.540;2023-03-19T10:54:49;11.10;;;9.80;;
68076;SDS011;54866;53.458;14.540;2023-03-19T10:57:24;10.40;;;9.10;;
68076;SDS011;54866;53.458;14.540;2023-03-19T10:59:57;12.10;;;10.20;;
68076;SDS011;54866;53.458;14.540;2023-03-19T11:02:32;10.30;;;8.70;;
68076;SDS011;54866;53.458;14.540;2023-03-19T11:05:06;11.60;;;9.30;;
68076;SDS011;54866;53.458;14.540;2023-03-19T11:07:49;9.60;;;8.60;;
68076;SDS011;54866;53.458;14.540;2023-03-19T11:10:22;10.70;;;9.60;;
68076;SDS011;54866;53.458;14.540;2023-03-19T11:12:55;13.60;;;12.20;;
68076;SDS011;54866;53.458;14.540;2023-03-19T11:15:30;18.00;;;14.50;;
68076;SDS011;54866;53.458;14.540;2023-03-19T11:18:07;12.80;;;11.40;;
68076;SDS011;54866;53.458;14.540;2023-03-19T11:20:43;12.10;;;10.80;;
68076;SDS011;54866;53.458;14.540;2023-03-19T11:23:21;12.20;;;11.00;;
68076;SDS011;54866;53.458;14.540;2023-03-19T11:25:54;12.80;;;11.40;;
68076;SDS011;54866;53.458;14.540;2023-03-19T11:28:28;15.70;;;12.40;;
68076;SDS011;54866;53.458;14.540;2023-03-19T11:31:00;15.50;;;13.20;;
68076;SDS011;54866;53.458;14.540;2023-03-19T11:33:47;17.60;;;14.00;;
68076;SDS011;54866;53.458;14.540;2023-03-19T11:36:25;15.30;;;13.60;;
68076;SDS011;54866;53.458;14.540;2023-03-19T11:39:17;13.40;;;11.70;;
68076;SDS011;54866;53.458;14.540;2023-03-19T11:41:57;13.10;;;11.80;;
68076;SDS011;54866;53.458;14.540;2023-03-19T11:44:38;13.50;;;12.10;;
68076;SDS011;54866;53.458;14.540;2023-03-19T11:47:20;15.00;;;11.50;;
68076;SDS011;54866;53.458;14.540;2023-03-19T11:50:07;13.70;;;12.30;;
68076;SDS011;54866;53.458;14.540;2023-03-19T11:52:55;12.20;;;10.90;;
68076;SDS011;54866;53.458;14.540;2023-03-19T11:55:35;10.90;;;9.80;;
68076;SDS011;54866;53.458;14.540;2023-03-19T11:58:14;12.60;;;11.30;;
68076;SDS011;54866;53.458;14.540;2023-03-19T12:00:56;13.80;;;11.80;;
68076;SDS011;54866;53.458;14.540;2023-03-19T12:06:27;12.10;;;10.90;;
68076;SDS011;54866;53.458;14.540;2023-03-19T12:09:05;11.60;;;10.30;;
68076;SDS011;54866;53.458;14.540;2023-03-19T12:11:44;10.60;;;9.60;;
68076;SDS011;54866;53.458;14.540;2023-03-19T12:14:22;11.00;;;8.80;;
68076;SDS011;54866;53.458;14.540;2023-03-19T12:17:09;10.10;;;8.70;;
68076;SDS011;54866;53.458;14.540;2023-03-19T12:19:54;10.60;;;9.40;;
68076;SDS011;54866;53.458;14.540;2023-03-19T12:22:41;10.60;;;9.50;;
68076;SDS011;54866;53.458;14.540;2023-03-19T12:25:23;7.90;;;6.80;;
68076;SDS011;54866;53.458;14.540;2023-03-19T12:28:04;9.50;;;7.90;;
68076;SDS011;54866;53.458;14.540;2023-03-19T12:30:40;9.20;;;7.20;;
68076;SDS011;54866;53.458;14.540;2023-03-19T12:33:19;9.10;;;7.70;;
68076;SDS011;54866;53.458;14.540;2023-03-19T12:35:58;10.00;;;8.50;;
68076;SDS011;54866;53.458;14.540;2023-03-19T12:38:32;6.90;;;6.10;;
68076;SDS011;54866;53.458;14.540;2023-03-19T12:41:08;8.80;;;7.10;;
68076;SDS011;54866;53.458;14.540;2023-03-19T12:43:43;5.90;;;4.20;;
68076;SDS011;54866;53.458;14.540;2023-03-19T12:46:19;5.40;;;4.90;;
68076;SDS011;54866;53.458;14.540;2023-03-19T12:48:57;6.10;;;5.00;;
68076;SDS011;54866;53.458;14.540;2023-03-19T12:51:33;5.50;;;5.00;;
68076;SDS011;54866;53.458;14.540;2023-03-19T12:54:09;5.80;;;5.10;;
68076;SDS011;54866;53.458;14.540;2023-03-19T12:56:47;6.00;;;4.20;;
68076;SDS011;54866;53.458;14.540;2023-03-19T12:59:21;4.80;;;3.80;;
68076;SDS011;54866;53.458;14.540;2023-03-19T13:01:57;5.00;;;3.80;;
68076;SDS011;54866;53.458;14.540;2023-03-19T13:04:31;4.30;;;3.80;;
68076;SDS011;54866;53.458;14.540;2023-03-19T13:07:06;4.10;;;3.70;;
68076;SDS011;54866;53.458;14.540;2023-03-19T13:09:43;4.80;;;4.00;;
68076;SDS011;54866;53.458;14.540;2023-03-19T13:12:19;5.60;;;4.60;;
68076;SDS011;54866;53.458;14.540;2023-03-19T13:14:54;5.20;;;4.40;;
68076;SDS011;54866;53.458;14.540;2023-03-19T13:17:30;5.80;;;4.60;;
68076;SDS011;54866;53.458;14.540;2023-03-19T13:20:12;5.00;;;4.40;;
68076;SDS011;54866;53.458;14.540;2023-03-19T13:22:48;5.40;;;4.30;;
68076;SDS011;54866;53.458;14.540;2023-03-19T13:25:23;4.40;;;3.50;;
68076;SDS011;54866;53.458;14.540;2023-03-19T13:27:58;4.70;;;3.30;;
68076;SDS011;54866;53.458;14.540;2023-03-19T13:30:28;4.60;;;3.30;;
68076;SDS011;54866;53.458;14.540;2023-03-19T13:33:01;4.40;;;3.60;;
68076;SDS011;54866;53.458;14.540;2023-03-19T13:35:37;4.30;;;3.20;;
68076;SDS011;54866;53.458;14.540;2023-03-19T13:38:14;4.30;;;3.10;;
68076;SDS011;54866;53.458;14.540;2023-03-19T13:40:48;4.40;;;3.50;;
68076;SDS011;54866;53.458;14.540;2023-03-19T13:46:31;3.10;;;2.40;;
68076;SDS011;54866;53.458;14.540;2023-03-19T13:49:19;4.70;;;3.80;;
68076;SDS011;54866;53.458;14.540;2023-03-19T13:58:19;3.90;;;2.50;;
68076;SDS011;54866;53.458;14.540;2023-03-19T14:01:11;3.70;;;2.50;;
68076;SDS011;54866;53.458;14.540;2023-03-19T14:04:16;3.20;;;2.50;;
68076;SDS011;54866;53.458;14.540;2023-03-19T14:06:49;3.60;;;2.90;;
68076;SDS011;54866;53.458;14.540;2023-03-19T14:09:29;3.50;;;2.60;;
68076;SDS011;54866;53.458;14.540;2023-03-19T14:12:21;4.80;;;3.20;;
68076;SDS011;54866;53.458;14.540;2023-03-19T14:15:00;3.40;;;2.70;;
68076;SDS011;54866;53.458;14.540;2023-03-19T14:17:43;4.30;;;2.50;;
68076;SDS011;54866;53.458;14.540;2023-03-19T14:20:23;3.20;;;2.40;;
68076;SDS011;54866;53.458;14.540;2023-03-19T14:23:01;2.80;;;2.00;;
68076;SDS011;54866;53.458;14.540;2023-03-19T14:28:40;2.60;;;1.90;;
68076;SDS011;54866;53.458;14.540;2023-03-19T14:31:19;4.10;;;3.00;;
68076;SDS011;54866;53.458;14.540;2023-03-19T14:33:58;2.90;;;1.80;;
68076;SDS011;54866;53.458;14.540;2023-03-19T14:36:33;2.80;;;1.80;;
68076;SDS011;54866;53.458;14.540;2023-03-19T14:39:08;3.30;;;1.40;;
68076;SDS011;54866;53.458;14.540;2023-03-19T14:41:45;2.50;;;1.70;;
68076;SDS011;54866;53.458;14.540;2023-03-19T14:47:37;2.80;;;1.80;;
68076;SDS011;54866;53.458;14.540;2023-03-19T14:53:18;3.40;;;1.20;;
68076;SDS011;54866;53.458;14.540;2023-03-19T14:56:01;3.40;;;1.50;;
68076;SDS011;54866;53.458;14.540;2023-03-19T14:58:37;2.70;;;1.20;;
68076;SDS011;54866;53.458;14.540;2023-03-19T15:01:16;2.50;;;1.70;;
68076;SDS011;54866;53.458;14.540;2023-03-19T15:03:50;2.10;;;1.50;;
68076;SDS011;54866;53.458;14.540;2023-03-19T15:06:22;2.70;;;1.50;;
68076;SDS011;54866;53.458;14.540;2023-03-19T15:08:58;2.60;;;1.60;;
68076;SDS011;54866;53.458;14.540;2023-03-19T15:11:32;2.80;;;1.60;;
68076;SDS011;54866;53.458;14.540;2023-03-19T15:14:22;2.70;;;1.80;;